sensor_id;sensor_type;location;lat;lon;timestamp;temperature;humidity
78733;DHT22;68056;52.530;5.454;2024-02-14T00:00:19;7.80;77.00
78733;DHT22;68056;52.530;5.454;2024-02-14T00:02:46;7.80;77.20
78733;DHT22;68056;52.530;5.454;2024-02-14T00:05:15;7.80;77.30
78733;DHT22;68056;52.530;5.454;2024-02-14T00:07:41;7.80;77.40
78733;DHT22;68056;52.530;5.454;2024-02-14T00:10:07;7.80;77.50
78733;DHT22;68056;52.530;5.454;2024-02-14T00:12:40;7.80;77.50
78733;DHT22;68056;52.530;5.454;2024-02-14T00:15:06;7.80;77.70
78733;DHT22;68056;52.530;5.454;2024-02-14T00:17:33;7.80;77.80
78733;DHT22;68056;52.530;5.454;2024-02-14T00:20:00;7.80;77.80
78733;DHT22;68056;52.530;5.454;2024-02-14T00:22:26;7.90;77.70
78733;DHT22;68056;52.530;5.454;2024-02-14T00:24:51;7.90;77.80
78733;DHT22;68056;52.530;5.454;2024-02-14T00:27:17;7.90;77.80
78733;DHT22;68056;52.530;5.454;2024-02-14T00:29:43;7.90;77.90
78733;DHT22;68056;52.530;5.454;2024-02-14T00:32:11;8.00;78.00
78733;DHT22;68056;52.530;5.454;2024-02-14T00:34:37;8.00;78.00
78733;DHT22;68056;52.530;5.454;2024-02-14T00:37:03;8.00;78.10
78733;DHT22;68056;52.530;5.454;2024-02-14T00:39:29;8.00;78.00
78733;DHT22;68056;52.530;5.454;2024-02-14T00:41:54;8.00;78.10
78733;DHT22;68056;52.530;5.454;2024-02-14T00:44:21;8.00;78.20
78733;DHT22;68056;52.530;5.454;2024-02-14T00:46:47;8.00;78.20
78733;DHT22;68056;52.530;5.454;2024-02-14T00:49:14;8.10;78.20
78733;DHT22;68056;52.530;5.454;2024-02-14T00:51:39;8.10;78.20
78733;DHT22;68056;52.530;5.454;2024-02-14T00:54:14;8.10;78.20
78733;DHT22;68056;52.530;5.454;2024-02-14T00:56:39;8.10;78.30
78733;DHT22;68056;52.530;5.454;2024-02-14T00:59:05;8.10;78.30
78733;DHT22;68056;52.530;5.454;2024-02-14T01:01:42;8.10;78.40
78733;DHT22;68056;52.530;5.454;2024-02-14T01:04:08;8.20;78.40
78733;DHT22;68056;52.530;5.454;2024-02-14T01:06:33;8.20;78.50
78733;DHT22;68056;52.530;5.454;2024-02-14T01:08:59;8.20;78.50
78733;DHT22;68056;52.530;5.454;2024-02-14T01:11:25;8.20;78.60
78733;DHT22;68056;52.530;5.454;2024-02-14T01:14:02;8.20;78.60
78733;DHT22;68056;52.530;5.454;2024-02-14T01:16:28;8.20;78.60
78733;DHT22;68056;52.530;5.454;2024-02-14T01:18:53;8.30;78.60
78733;DHT22;68056;52.530;5.454;2024-02-14T01:21:19;8.30;78.70
78733;DHT22;68056;52.530;5.454;2024-02-14T01:23:54;8.30;78.80
78733;DHT22;68056;52.530;5.454;2024-02-14T01:26:22;8.30;78.80
78733;DHT22;68056;52.530;5.454;2024-02-14T01:28:48;8.40;78.90
78733;DHT22;68056;52.530;5.454;2024-02-14T01:31:13;8.40;78.90
78733;DHT22;68056;52.530;5.454;2024-02-14T01:33:39;8.40;78.90
78733;DHT22;68056;52.530;5.454;2024-02-14T01:36:06;8.40;79.00
78733;DHT22;68056;52.530;5.454;2024-02-14T01:38:32;8.50;78.90
78733;DHT22;68056;52.530;5.454;2024-02-14T01:41:08;8.50;79.00
78733;DHT22;68056;52.530;5.454;2024-02-14T01:43:36;8.50;79.00
78733;DHT22;68056;52.530;5.454;2024-02-14T01:46:05;8.60;79.00
78733;DHT22;68056;52.530;5.454;2024-02-14T01:48:31;8.60;79.00
78733;DHT22;68056;52.530;5.454;2024-02-14T01:50:57;8.60;79.00
78733;DHT22;68056;52.530;5.454;2024-02-14T01:53:25;8.60;79.10
78733;DHT22;68056;52.530;5.454;2024-02-14T01:55:51;8.60;79.10
78733;DHT22;68056;52.530;5.454;2024-02-14T01:58:18;8.70;79.10
78733;DHT22;68056;52.530;5.454;2024-02-14T02:00:44;8.80;79.20
78733;DHT22;68056;52.530;5.454;2024-02-14T02:03:11;8.80;79.20
78733;DHT22;68056;52.530;5.454;2024-02-14T02:05:36;8.80;79.30
78733;DHT22;68056;52.530;5.454;2024-02-14T02:08:14;8.90;79.50
78733;DHT22;68056;52.530;5.454;2024-02-14T02:10:40;8.90;79.40
78733;DHT22;68056;52.530;5.454;2024-02-14T02:13:06;8.90;79.50
78733;DHT22;68056;52.530;5.454;2024-02-14T02:15:31;8.90;79.60
78733;DHT22;68056;52.530;5.454;2024-02-14T02:17:57;8.90;79.70
78733;DHT22;68056;52.530;5.454;2024-02-14T02:20:24;8.90;79.60
78733;DHT22;68056;52.530;5.454;2024-02-14T02:23:02;9.00;79.70
78733;DHT22;68056;52.530;5.454;2024-02-14T02:25:28;9.00;79.70
78733;DHT22;68056;52.530;5.454;2024-02-14T02:27:54;9.00;79.70
78733;DHT22;68056;52.530;5.454;2024-02-14T02:30:23;9.00;79.80
78733;DHT22;68056;52.530;5.454;2024-02-14T02:32:59;9.00;79.80
78733;DHT22;68056;52.530;5.454;2024-02-14T02:35:25;9.00;79.90
78733;DHT22;68056;52.530;5.454;2024-02-14T02:37:51;9.00;80.10
78733;DHT22;68056;52.530;5.454;2024-02-14T02:40:18;9.00;80.10
78733;DHT22;68056;52.530;5.454;2024-02-14T02:42:46;9.00;80.10
78733;DHT22;68056;52.530;5.454;2024-02-14T02:45:12;9.10;80.20
78733;DHT22;68056;52.530;5.454;2024-02-14T02:47:48;9.10;80.30
78733;DHT22;68056;52.530;5.454;2024-02-14T02:50:17;9.20;80.40
78733;DHT22;68056;52.530;5.454;2024-02-14T02:52:42;9.20;80.50
78733;DHT22;68056;52.530;5.454;2024-02-14T02:55:08;9.20;80.40
78733;DHT22;68056;52.530;5.454;2024-02-14T02:57:34;9.20;80.50
78733;DHT22;68056;52.530;5.454;2024-02-14T03:00:03;9.20;80.40
78733;DHT22;68056;52.530;5.454;2024-02-14T03:02:30;9.20;80.50
78733;DHT22;68056;52.530;5.454;2024-02-14T03:04:56;9.20;80.50
78733;DHT22;68056;52.530;5.454;2024-02-14T03:07:22;9.20;80.50
78733;DHT22;68056;52.530;5.454;2024-02-14T03:09:49;9.20;80.50
78733;DHT22;68056;52.530;5.454;2024-02-14T03:12:14;9.30;80.50
78733;DHT22;68056;52.530;5.454;2024-02-14T03:14:41;9.30;80.50
78733;DHT22;68056;52.530;5.454;2024-02-14T03:17:08;9.20;80.50
78733;DHT22;68056;52.530;5.454;2024-02-14T03:19:35;9.30;80.50
78733;DHT22;68056;52.530;5.454;2024-02-14T03:22:04;9.30;80.50
78733;DHT22;68056;52.530;5.454;2024-02-14T03:24:45;9.30;80.60
78733;DHT22;68056;52.530;5.454;2024-02-14T03:27:12;9.30;80.60
78733;DHT22;68056;52.530;5.454;2024-02-14T03:29:38;9.30;80.60
78733;DHT22;68056;52.530;5.454;2024-02-14T03:32:05;9.30;80.50
78733;DHT22;68056;52.530;5.454;2024-02-14T03:34:48;9.30;80.60
78733;DHT22;68056;52.530;5.454;2024-02-14T03:37:14;9.40;80.60
78733;DHT22;68056;52.530;5.454;2024-02-14T03:39:41;9.40;80.50
78733;DHT22;68056;52.530;5.454;2024-02-14T03:42:07;9.40;80.50
78733;DHT22;68056;52.530;5.454;2024-02-14T03:44:33;9.40;80.50
78733;DHT22;68056;52.530;5.454;2024-02-14T03:46:59;9.40;80.50
78733;DHT22;68056;52.530;5.454;2024-02-14T03:49:43;9.40;80.60
78733;DHT22;68056;52.530;5.454;2024-02-14T03:52:08;9.40;80.60
78733;DHT22;68056;52.530;5.454;2024-02-14T03:54:37;9.40;80.50
78733;DHT22;68056;52.530;5.454;2024-02-14T03:57:02;9.40;80.60
78733;DHT22;68056;52.530;5.454;2024-02-14T03:59:32;9.40;80.50
78733;DHT22;68056;52.530;5.454;2024-02-14T04:02:07;9.40;80.60
78733;DHT22;68056;52.530;5.454;2024-02-14T04:04:38;9.40;80.60
78733;DHT22;68056;52.530;5.454;2024-02-14T04:07:18;9.40;80.60
78733;DHT22;68056;52.530;5.454;2024-02-14T04:09:44;9.40;80.60
78733;DHT22;68056;52.530;5.454;2024-02-14T04:12:09;9.40;80.60
78733;DHT22;68056;52.530;5.454;2024-02-14T04:14:36;9.40;80.70
78733;DHT22;68056;52.530;5.454;2024-02-14T04:17:03;9.50;80.60
78733;DHT22;68056;52.530;5.454;2024-02-14T04:19:29;9.40;80.50
78733;DHT22;68056;52.530;5.454;2024-02-14T04:21:55;9.50;80.60
78733;DHT22;68056;52.530;5.454;2024-02-14T04:24:20;9.50;80.50
78733;DHT22;68056;52.530;5.454;2024-02-14T04:26:46;9.50;80.60
78733;DHT22;68056;52.530;5.454;2024-02-14T04:29:22;9.50;80.70
78733;DHT22;68056;52.530;5.454;2024-02-14T04:31:48;9.50;80.60
78733;DHT22;68056;52.530;5.454;2024-02-14T04:34:14;9.60;80.70
78733;DHT22;68056;52.530;5.454;2024-02-14T04:36:40;9.60;80.70
78733;DHT22;68056;52.530;5.454;2024-02-14T04:39:06;9.60;80.60
78733;DHT22;68056;52.530;5.454;2024-02-14T04:41:34;9.60;80.60
78733;DHT22;68056;52.530;5.454;2024-02-14T04:44:05;9.60;80.60
78733;DHT22;68056;52.530;5.454;2024-02-14T04:46:34;9.60;80.60
78733;DHT22;68056;52.530;5.454;2024-02-14T04:49:00;9.70;80.70
78733;DHT22;68056;52.530;5.454;2024-02-14T04:51:40;9.60;80.70
78733;DHT22;68056;52.530;5.454;2024-02-14T04:54:07;9.60;80.80
78733;DHT22;68056;52.530;5.454;2024-02-14T04:56:33;9.60;80.80
78733;DHT22;68056;52.530;5.454;2024-02-14T04:58:59;9.60;80.80
78733;DHT22;68056;52.530;5.454;2024-02-14T05:01:25;9.60;80.80
78733;DHT22;68056;52.530;5.454;2024-02-14T05:03:50;9.60;80.90
78733;DHT22;68056;52.530;5.454;2024-02-14T05:06:16;9.60;80.90
78733;DHT22;68056;52.530;5.454;2024-02-14T05:08:41;9.60;80.90
78733;DHT22;68056;52.530;5.454;2024-02-14T05:11:07;9.60;80.90
78733;DHT22;68056;52.530;5.454;2024-02-14T05:13:33;9.60;81.00
78733;DHT22;68056;52.530;5.454;2024-02-14T05:16:01;9.60;81.00
78733;DHT22;68056;52.530;5.454;2024-02-14T05:18:27;9.60;81.00
78733;DHT22;68056;52.530;5.454;2024-02-14T05:20:53;9.60;81.10
78733;DHT22;68056;52.530;5.454;2024-02-14T05:23:18;9.60;81.00
78733;DHT22;68056;52.530;5.454;2024-02-14T05:25:44;9.60;81.10
78733;DHT22;68056;52.530;5.454;2024-02-14T05:28:10;9.60;81.10
78733;DHT22;68056;52.530;5.454;2024-02-14T05:30:39;9.60;81.10
78733;DHT22;68056;52.530;5.454;2024-02-14T05:33:05;9.60;81.20
78733;DHT22;68056;52.530;5.454;2024-02-14T05:35:30;9.60;81.20
78733;DHT22;68056;52.530;5.454;2024-02-14T05:37:56;9.70;81.20
78733;DHT22;68056;52.530;5.454;2024-02-14T05:40:22;9.60;81.20
78733;DHT22;68056;52.530;5.454;2024-02-14T05:42:47;9.70;81.20
78733;DHT22;68056;52.530;5.454;2024-02-14T05:45:13;9.70;81.10
78733;DHT22;68056;52.530;5.454;2024-02-14T05:47:39;9.70;81.10
78733;DHT22;68056;52.530;5.454;2024-02-14T05:50:06;9.70;81.10
78733;DHT22;68056;52.530;5.454;2024-02-14T05:52:34;9.70;81.10
78733;DHT22;68056;52.530;5.454;2024-02-14T05:54:59;9.80;81.10
78733;DHT22;68056;52.530;5.454;2024-02-14T05:57:25;9.80;81.10
78733;DHT22;68056;52.530;5.454;2024-02-14T05:59:52;9.80;81.10
78733;DHT22;68056;52.530;5.454;2024-02-14T06:02:17;9.80;81.10
78733;DHT22;68056;52.530;5.454;2024-02-14T06:04:43;9.90;81.10
78733;DHT22;68056;52.530;5.454;2024-02-14T06:07:08;10.00;81.10
78733;DHT22;68056;52.530;5.454;2024-02-14T06:09:36;10.00;81.10
78733;DHT22;68056;52.530;5.454;2024-02-14T06:12:02;10.00;81.10
78733;DHT22;68056;52.530;5.454;2024-02-14T06:14:27;10.00;81.10
78733;DHT22;68056;52.530;5.454;2024-02-14T06:16:56;10.00;81.00
78733;DHT22;68056;52.530;5.454;2024-02-14T06:19:22;10.10;81.00
78733;DHT22;68056;52.530;5.454;2024-02-14T06:21:48;10.10;81.00
78733;DHT22;68056;52.530;5.454;2024-02-14T06:24:13;10.10;80.90
78733;DHT22;68056;52.530;5.454;2024-02-14T06:26:39;10.20;80.90
78733;DHT22;68056;52.530;5.454;2024-02-14T06:29:17;10.20;80.80
78733;DHT22;68056;52.530;5.454;2024-02-14T06:31:43;10.20;80.80
78733;DHT22;68056;52.530;5.454;2024-02-14T06:34:09;10.20;80.80
78733;DHT22;68056;52.530;5.454;2024-02-14T06:36:36;10.20;80.90
78733;DHT22;68056;52.530;5.454;2024-02-14T06:39:13;10.20;80.90
78733;DHT22;68056;52.530;5.454;2024-02-14T06:41:39;10.20;80.90
78733;DHT22;68056;52.530;5.454;2024-02-14T06:44:05;10.20;80.80
78733;DHT22;68056;52.530;5.454;2024-02-14T06:46:31;10.20;80.80
78733;DHT22;68056;52.530;5.454;2024-02-14T06:48:57;10.20;80.80
78733;DHT22;68056;52.530;5.454;2024-02-14T06:51:23;10.20;80.90
78733;DHT22;68056;52.530;5.454;2024-02-14T06:53:55;10.20;80.90
78733;DHT22;68056;52.530;5.454;2024-02-14T06:56:26;10.20;80.90
78733;DHT22;68056;52.530;5.454;2024-02-14T06:58:51;10.20;80.90
78733;DHT22;68056;52.530;5.454;2024-02-14T07:01:20;10.20;81.00
78733;DHT22;68056;52.530;5.454;2024-02-14T07:03:49;10.30;80.90
78733;DHT22;68056;52.530;5.454;2024-02-14T07:06:27;10.30;81.00
78733;DHT22;68056;52.530;5.454;2024-02-14T07:08:53;10.30;80.90
78733;DHT22;68056;52.530;5.454;2024-02-14T07:11:19;10.30;80.90
78733;DHT22;68056;52.530;5.454;2024-02-14T07:13:45;10.30;80.90
78733;DHT22;68056;52.530;5.454;2024-02-14T07:16:10;10.30;80.90
78733;DHT22;68056;52.530;5.454;2024-02-14T07:18:36;10.30;80.80
78733;DHT22;68056;52.530;5.454;2024-02-14T07:21:01;10.30;80.90
78733;DHT22;68056;52.530;5.454;2024-02-14T07:23:39;10.30;80.90
78733;DHT22;68056;52.530;5.454;2024-02-14T07:26:05;10.30;80.90
78733;DHT22;68056;52.530;5.454;2024-02-14T07:28:30;10.30;81.00
78733;DHT22;68056;52.530;5.454;2024-02-14T07:30:57;10.30;81.00
78733;DHT22;68056;52.530;5.454;2024-02-14T07:33:35;10.30;81.10
78733;DHT22;68056;52.530;5.454;2024-02-14T07:36:00;10.30;81.00
78733;DHT22;68056;52.530;5.454;2024-02-14T07:38:26;10.40;81.00
78733;DHT22;68056;52.530;5.454;2024-02-14T07:40:52;10.30;81.10
78733;DHT22;68056;52.530;5.454;2024-02-14T07:43:18;10.40;81.00
78733;DHT22;68056;52.530;5.454;2024-02-14T07:45:43;10.40;81.00
78733;DHT22;68056;52.530;5.454;2024-02-14T07:48:20;10.40;81.00
78733;DHT22;68056;52.530;5.454;2024-02-14T07:50:47;10.40;81.00
78733;DHT22;68056;52.530;5.454;2024-02-14T07:53:13;10.40;81.00
78733;DHT22;68056;52.530;5.454;2024-02-14T07:55:39;10.40;81.00
78733;DHT22;68056;52.530;5.454;2024-02-14T07:58:31;10.40;81.00
78733;DHT22;68056;52.530;5.454;2024-02-14T08:00:57;10.40;81.00
78733;DHT22;68056;52.530;5.454;2024-02-14T08:03:37;10.40;81.00
78733;DHT22;68056;52.530;5.454;2024-02-14T08:06:05;10.40;81.00
78733;DHT22;68056;52.530;5.454;2024-02-14T08:08:31;10.40;81.00
78733;DHT22;68056;52.530;5.454;2024-02-14T08:10:56;10.40;81.00
78733;DHT22;68056;52.530;5.454;2024-02-14T08:13:34;10.50;81.00
78733;DHT22;68056;52.530;5.454;2024-02-14T08:16:00;10.50;81.00
78733;DHT22;68056;52.530;5.454;2024-02-14T08:18:26;10.50;81.00
78733;DHT22;68056;52.530;5.454;2024-02-14T08:20:53;10.50;81.10
78733;DHT22;68056;52.530;5.454;2024-02-14T08:23:32;10.50;81.00
78733;DHT22;68056;52.530;5.454;2024-02-14T08:25:58;10.50;81.10
78733;DHT22;68056;52.530;5.454;2024-02-14T08:28:23;10.50;81.10
78733;DHT22;68056;52.530;5.454;2024-02-14T08:30:49;10.50;81.10
78733;DHT22;68056;52.530;5.454;2024-02-14T08:33:15;10.50;81.10
78733;DHT22;68056;52.530;5.454;2024-02-14T08:36:02;10.50;81.00
78733;DHT22;68056;52.530;5.454;2024-02-14T08:38:28;10.50;81.00
78733;DHT22;68056;52.530;5.454;2024-02-14T08:41:03;10.60;81.10
78733;DHT22;68056;52.530;5.454;2024-02-14T08:43:29;10.60;81.20
78733;DHT22;68056;52.530;5.454;2024-02-14T08:45:56;10.60;81.10
78733;DHT22;68056;52.530;5.454;2024-02-14T08:48:22;10.60;81.20
78733;DHT22;68056;52.530;5.454;2024-02-14T08:53:27;10.70;81.10
78733;DHT22;68056;52.530;5.454;2024-02-14T08:55:52;10.70;81.10
78733;DHT22;68056;52.530;5.454;2024-02-14T08:58:18;10.70;81.10
78733;DHT22;68056;52.530;5.454;2024-02-14T09:00:43;10.70;81.20
78733;DHT22;68056;52.530;5.454;2024-02-14T09:03:19;10.70;81.20
78733;DHT22;68056;52.530;5.454;2024-02-14T09:05:45;10.80;81.20
78733;DHT22;68056;52.530;5.454;2024-02-14T09:08:12;10.80;81.10
78733;DHT22;68056;52.530;5.454;2024-02-14T09:10:38;10.80;81.10
78733;DHT22;68056;52.530;5.454;2024-02-14T09:13:04;10.90;81.00
78733;DHT22;68056;52.530;5.454;2024-02-14T09:15:42;10.90;81.10
78733;DHT22;68056;52.530;5.454;2024-02-14T09:18:08;10.90;81.00
78733;DHT22;68056;52.530;5.454;2024-02-14T09:20:34;10.90;81.00
78733;DHT22;68056;52.530;5.454;2024-02-14T09:23:00;10.90;81.00
78733;DHT22;68056;52.530;5.454;2024-02-14T09:25:28;10.90;81.00
78733;DHT22;68056;52.530;5.454;2024-02-14T09:27:54;11.00;81.00
78733;DHT22;68056;52.530;5.454;2024-02-14T09:30:19;11.00;81.00
78733;DHT22;68056;52.530;5.454;2024-02-14T09:32:45;11.00;81.10
78733;DHT22;68056;52.530;5.454;2024-02-14T09:35:11;11.00;81.10
78733;DHT22;68056;52.530;5.454;2024-02-14T09:37:36;11.00;81.10
78733;DHT22;68056;52.530;5.454;2024-02-14T09:40:05;11.00;81.10
78733;DHT22;68056;52.530;5.454;2024-02-14T09:42:54;11.00;81.20
78733;DHT22;68056;52.530;5.454;2024-02-14T09:45:23;11.00;81.20
78733;DHT22;68056;52.530;5.454;2024-02-14T09:47:50;11.00;81.20
78733;DHT22;68056;52.530;5.454;2024-02-14T09:50:17;11.00;81.20
78733;DHT22;68056;52.530;5.454;2024-02-14T09:52:43;11.00;81.20
78733;DHT22;68056;52.530;5.454;2024-02-14T09:55:09;11.10;81.20
78733;DHT22;68056;52.530;5.454;2024-02-14T09:57:40;11.10;81.30
78733;DHT22;68056;52.530;5.454;2024-02-14T10:00:07;11.10;81.20
78733;DHT22;68056;52.530;5.454;2024-02-14T10:02:35;11.10;81.20
78733;DHT22;68056;52.530;5.454;2024-02-14T10:05:01;11.10;81.20
78733;DHT22;68056;52.530;5.454;2024-02-14T10:07:29;11.10;81.20
78733;DHT22;68056;52.530;5.454;2024-02-14T10:10:08;11.10;81.20
78733;DHT22;68056;52.530;5.454;2024-02-14T10:12:46;11.10;81.20
78733;DHT22;68056;52.530;5.454;2024-02-14T10:15:12;11.10;81.30
78733;DHT22;68056;52.530;5.454;2024-02-14T10:17:39;11.10;81.30
78733;DHT22;68056;52.530;5.454;2024-02-14T10:20:07;11.10;81.40
78733;DHT22;68056;52.530;5.454;2024-02-14T10:22:34;11.10;81.30
78733;DHT22;68056;52.530;5.454;2024-02-14T10:25:01;11.10;81.20
78733;DHT22;68056;52.530;5.454;2024-02-14T10:27:42;11.10;81.30
78733;DHT22;68056;52.530;5.454;2024-02-14T10:30:09;11.10;81.40
78733;DHT22;68056;52.530;5.454;2024-02-14T10:32:57;11.30;81.40
78733;DHT22;68056;52.530;5.454;2024-02-14T10:35:22;11.40;81.20
78733;DHT22;68056;52.530;5.454;2024-02-14T10:37:48;11.40;81.00
78733;DHT22;68056;52.530;5.454;2024-02-14T10:40:14;11.40;81.00
78733;DHT22;68056;52.530;5.454;2024-02-14T10:42:40;11.50;81.00
78733;DHT22;68056;52.530;5.454;2024-02-14T10:45:38;11.50;80.80
78733;DHT22;68056;52.530;5.454;2024-02-14T10:48:14;11.40;80.90
78733;DHT22;68056;52.530;5.454;2024-02-14T10:50:43;11.40;80.90
78733;DHT22;68056;52.530;5.454;2024-02-14T10:53:13;11.40;80.90
78733;DHT22;68056;52.530;5.454;2024-02-14T10:55:51;11.40;81.00
78733;DHT22;68056;52.530;5.454;2024-02-14T10:58:19;11.40;81.00
78733;DHT22;68056;52.530;5.454;2024-02-14T11:00:47;11.40;80.90
78733;DHT22;68056;52.530;5.454;2024-02-14T11:03:13;11.40;81.00
78733;DHT22;68056;52.530;5.454;2024-02-14T11:06:01;11.40;81.00
78733;DHT22;68056;52.530;5.454;2024-02-14T11:08:29;11.30;81.10
78733;DHT22;68056;52.530;5.454;2024-02-14T11:11:06;11.40;81.10
78733;DHT22;68056;52.530;5.454;2024-02-14T11:13:32;11.40;81.10
78733;DHT22;68056;52.530;5.454;2024-02-14T11:16:00;11.40;81.00
78733;DHT22;68056;52.530;5.454;2024-02-14T11:18:38;11.40;81.10
78733;DHT22;68056;52.530;5.454;2024-02-14T11:21:16;11.40;81.10
78733;DHT22;68056;52.530;5.454;2024-02-14T11:23:55;11.40;81.10
78733;DHT22;68056;52.530;5.454;2024-02-14T11:26:20;11.40;81.20
78733;DHT22;68056;52.530;5.454;2024-02-14T11:28:48;11.40;81.20
78733;DHT22;68056;52.530;5.454;2024-02-14T11:31:57;11.40;81.20
78733;DHT22;68056;52.530;5.454;2024-02-14T11:34:12;11.40;81.10
78733;DHT22;68056;52.530;5.454;2024-02-14T11:36:48;11.50;81.00
78733;DHT22;68056;52.530;5.454;2024-02-14T11:39:14;11.50;81.00
78733;DHT22;68056;52.530;5.454;2024-02-14T11:41:39;11.50;81.00
78733;DHT22;68056;52.530;5.454;2024-02-14T11:44:07;11.50;81.00
78733;DHT22;68056;52.530;5.454;2024-02-14T11:46:34;11.50;81.00
78733;DHT22;68056;52.530;5.454;2024-02-14T11:49:01;11.50;80.90
78733;DHT22;68056;52.530;5.454;2024-02-14T11:51:32;11.50;80.90
78733;DHT22;68056;52.530;5.454;2024-02-14T11:53:59;11.50;81.00
78733;DHT22;68056;52.530;5.454;2024-02-14T11:56:44;11.50;81.00
78733;DHT22;68056;52.530;5.454;2024-02-14T11:59:15;11.50;81.00
78733;DHT22;68056;52.530;5.454;2024-02-14T12:01:42;11.50;81.00
78733;DHT22;68056;52.530;5.454;2024-02-14T12:04:10;11.50;81.00
78733;DHT22;68056;52.530;5.454;2024-02-14T12:06:51;11.50;81.00
78733;DHT22;68056;52.530;5.454;2024-02-14T12:09:16;11.50;81.10
78733;DHT22;68056;52.530;5.454;2024-02-14T12:11:42;11.50;81.00
78733;DHT22;68056;52.530;5.454;2024-02-14T12:14:09;11.50;81.10
78733;DHT22;68056;52.530;5.454;2024-02-14T12:16:49;11.50;81.10
78733;DHT22;68056;52.530;5.454;2024-02-14T12:19:17;11.50;81.10
78733;DHT22;68056;52.530;5.454;2024-02-14T12:21:44;11.50;81.10
78733;DHT22;68056;52.530;5.454;2024-02-14T12:24:22;11.50;81.10
78733;DHT22;68056;52.530;5.454;2024-02-14T12:26:49;11.50;81.20
78733;DHT22;68056;52.530;5.454;2024-02-14T12:29:18;11.50;81.10
78733;DHT22;68056;52.530;5.454;2024-02-14T12:31:43;11.50;81.10
78733;DHT22;68056;52.530;5.454;2024-02-14T12:34:21;11.70;81.20
78733;DHT22;68056;52.530;5.454;2024-02-14T12:36:47;11.70;81.20
78733;DHT22;68056;52.530;5.454;2024-02-14T12:39:13;11.70;81.10
78733;DHT22;68056;52.530;5.454;2024-02-14T12:41:38;11.70;81.10
78733;DHT22;68056;52.530;5.454;2024-02-14T12:44:21;11.70;81.20
78733;DHT22;68056;52.530;5.454;2024-02-14T12:46:46;11.80;81.10
78733;DHT22;68056;52.530;5.454;2024-02-14T12:49:12;11.90;81.00
78733;DHT22;68056;52.530;5.454;2024-02-14T12:51:38;11.90;80.90
78733;DHT22;68056;52.530;5.454;2024-02-14T12:54:15;11.90;80.90
78733;DHT22;68056;52.530;5.454;2024-02-14T12:56:41;11.90;81.00
78733;DHT22;68056;52.530;5.454;2024-02-14T12:59:07;11.90;81.00
78733;DHT22;68056;52.530;5.454;2024-02-14T13:01:32;11.90;81.00
78733;DHT22;68056;52.530;5.454;2024-02-14T13:04:13;11.90;81.00
78733;DHT22;68056;52.530;5.454;2024-02-14T13:06:42;11.90;81.10
78733;DHT22;68056;52.530;5.454;2024-02-14T13:09:07;11.90;81.00
78733;DHT22;68056;52.530;5.454;2024-02-14T13:11:33;11.90;81.10
78733;DHT22;68056;52.530;5.454;2024-02-14T13:13:59;11.80;81.00
78733;DHT22;68056;52.530;5.454;2024-02-14T13:16:37;11.80;81.10
78733;DHT22;68056;52.530;5.454;2024-02-14T13:19:03;11.80;81.00
78733;DHT22;68056;52.530;5.454;2024-02-14T13:21:28;11.80;81.10
78733;DHT22;68056;52.530;5.454;2024-02-14T13:23:54;11.80;81.10
78733;DHT22;68056;52.530;5.454;2024-02-14T13:26:31;11.70;81.20
78733;DHT22;68056;52.530;5.454;2024-02-14T13:28:56;11.70;81.30
78733;DHT22;68056;52.530;5.454;2024-02-14T13:31:22;11.70;81.30
78733;DHT22;68056;52.530;5.454;2024-02-14T13:33:48;11.70;81.30
78733;DHT22;68056;52.530;5.454;2024-02-14T13:36:13;11.70;81.30
78733;DHT22;68056;52.530;5.454;2024-02-14T13:38:40;11.70;81.40
78733;DHT22;68056;52.530;5.454;2024-02-14T13:41:06;11.70;81.30
78733;DHT22;68056;52.530;5.454;2024-02-14T13:43:31;11.70;81.30
78733;DHT22;68056;52.530;5.454;2024-02-14T13:45:57;11.70;81.30
78733;DHT22;68056;52.530;5.454;2024-02-14T13:48:23;11.70;81.40
78733;DHT22;68056;52.530;5.454;2024-02-14T13:50:48;11.70;81.30
78733;DHT22;68056;52.530;5.454;2024-02-14T13:53:15;11.70;81.30
78733;DHT22;68056;52.530;5.454;2024-02-14T13:55:42;11.80;81.20
78733;DHT22;68056;52.530;5.454;2024-02-14T13:58:08;11.70;81.30
78733;DHT22;68056;52.530;5.454;2024-02-14T14:00:51;11.70;81.30
78733;DHT22;68056;52.530;5.454;2024-02-14T14:03:18;11.80;81.40
78733;DHT22;68056;52.530;5.454;2024-02-14T14:05:46;11.80;81.40
78733;DHT22;68056;52.530;5.454;2024-02-14T14:08:12;11.90;81.30
78733;DHT22;68056;52.530;5.454;2024-02-14T14:10:38;11.90;81.30
78733;DHT22;68056;52.530;5.454;2024-02-14T14:13:04;11.90;81.20
78733;DHT22;68056;52.530;5.454;2024-02-14T14:15:33;11.90;81.20
78733;DHT22;68056;52.530;5.454;2024-02-14T14:17:59;11.90;81.20
78733;DHT22;68056;52.530;5.454;2024-02-14T14:20:25;11.90;81.20
78733;DHT22;68056;52.530;5.454;2024-02-14T14:22:51;11.90;81.20
78733;DHT22;68056;52.530;5.454;2024-02-14T14:25:36;11.90;81.20
78733;DHT22;68056;52.530;5.454;2024-02-14T14:28:03;11.90;81.20
78733;DHT22;68056;52.530;5.454;2024-02-14T14:30:41;11.90;81.20
78733;DHT22;68056;52.530;5.454;2024-02-14T14:33:07;11.90;81.20
78733;DHT22;68056;52.530;5.454;2024-02-14T14:35:36;11.90;81.20
78733;DHT22;68056;52.530;5.454;2024-02-14T14:38:03;11.90;81.30
78733;DHT22;68056;52.530;5.454;2024-02-14T14:40:29;11.90;81.30
78733;DHT22;68056;52.530;5.454;2024-02-14T14:42:55;11.90;81.30
78733;DHT22;68056;52.530;5.454;2024-02-14T14:45:20;11.90;81.30
78733;DHT22;68056;52.530;5.454;2024-02-14T14:47:46;11.90;81.20
78733;DHT22;68056;52.530;5.454;2024-02-14T14:50:12;11.90;81.20
78733;DHT22;68056;52.530;5.454;2024-02-14T14:52:41;11.90;81.40
78733;DHT22;68056;52.530;5.454;2024-02-14T14:55:09;11.90;81.30
78733;DHT22;68056;52.530;5.454;2024-02-14T14:57:35;11.90;81.40
78733;DHT22;68056;52.530;5.454;2024-02-14T15:00:08;11.90;81.40
78733;DHT22;68056;52.530;5.454;2024-02-14T15:02:39;11.90;81.40
78733;DHT22;68056;52.530;5.454;2024-02-14T15:05:09;11.80;81.50
78733;DHT22;68056;52.530;5.454;2024-02-14T15:07:36;11.80;81.40
78733;DHT22;68056;52.530;5.454;2024-02-14T15:10:02;11.90;81.50
78733;DHT22;68056;52.530;5.454;2024-02-14T15:12:28;11.80;81.50
78733;DHT22;68056;52.530;5.454;2024-02-14T15:14:54;11.90;81.50
78733;DHT22;68056;52.530;5.454;2024-02-14T15:17:20;11.90;81.50
78733;DHT22;68056;52.530;5.454;2024-02-14T15:19:46;11.80;81.40
78733;DHT22;68056;52.530;5.454;2024-02-14T15:22:12;11.80;81.50
78733;DHT22;68056;52.530;5.454;2024-02-14T15:24:39;11.70;81.50
78733;DHT22;68056;52.530;5.454;2024-02-14T15:27:08;11.70;81.50
78733;DHT22;68056;52.530;5.454;2024-02-14T15:29:36;11.70;81.50
78733;DHT22;68056;52.530;5.454;2024-02-14T15:32:21;11.70;81.60
78733;DHT22;68056;52.530;5.454;2024-02-14T15:35:06;11.70;81.50
78733;DHT22;68056;52.530;5.454;2024-02-14T15:37:31;11.70;81.50
78733;DHT22;68056;52.530;5.454;2024-02-14T15:39:57;11.60;81.50
78733;DHT22;68056;52.530;5.454;2024-02-14T15:42:36;11.50;81.50
78733;DHT22;68056;52.530;5.454;2024-02-14T15:45:02;11.50;81.50
78733;DHT22;68056;52.530;5.454;2024-02-14T15:47:28;11.50;81.60